FSAA4: Arkansas River at Ft. Smith

Data processed at Wed Dec 17 23:21:32 2014 Central Standard Time


All information presented herein is the property of the government of the United States of America and may be revised or deleted at any time without prior notice.
Dissemination of this information without the expressed written consent of the Public Affairs Office, Tulsa District U.S. Army Corps of Engineers is strictly prohibited.
These data are gathered electronically and, as presented, have not undergone any form of quality control. These data are not guaranteed to be valid or correct.
Go to home page.
Go to station list.
Go to station map.

Upstream stations:

Downstream station: Previous Day
Next Day
Current Day

Display graphics.
Display DCP transmissions.


    
    SHEF ID:       FSAA4     Arkansas River at Ft. Smith
    STATION TYPE:  STREAM GAGE
    Regulation Limits:  Stage = -901.00, Flow =    -901
    
                    STAGE  STAGE(2)  RIV-FLOW FLOW-INDX  FLOW-VEL   CX AREA  WTR-TEMP   VOLTAGE
                     FEET      FEET       CFS      FT/S      FT/S       FT2     DEG-F     VOLTS
                     GOES      GOES      GOES      GOES      GOES      GOES      GOES      GOES
       (Cen)
    12/17 01:00     11.53     11.54      7820      0.79      0.42     18712     48.69     12.89
    12/17 02:00     11.42     11.45      1587      0.18      0.09     18565     48.42     12.81
    12/17 03:00     11.54     11.56  -2894.00     -0.34     -0.15     18725     48.56     12.81
    12/17 04:00     11.68     11.72    731.00      0.08      0.04     18911     48.49     12.81
    12/17 05:00     11.59     11.63   4327.00      0.48      0.23     18792     48.96     12.81
    12/17 06:00     11.57     11.60   1260.00      0.14      0.07     18765     49.15     12.73
    12/17 07:00     12.23     12.27  18314.00      1.64      0.93     19643     49.23     12.73
    12/17 08:00     12.07     12.17  37314.00      3.24      1.92     19430     47.52     12.73
    12/17 09:00     12.07     12.13  37556.00      3.26      1.93     19430     47.12     12.73
    12/17 10:00     12.27     12.34  34525.00      2.97      1.75     19696     47.01     12.97
    12/17 11:00     12.11     12.20  28954.00      2.54      1.49     19483     46.90     13.13
    12/17 12:00     11.46     11.52   6316.00      0.66      0.34     18619     47.46     13.05
    12/17 13:00     11.33     11.37   1577.00      0.18      0.09     18446     48.18     13.13
    12/17 14:00     10.98     11.00  11649.00      1.17      0.65     17980     48.97     13.05
    12/17 15:00     11.17     11.20    353.00      0.04      0.02     18233     48.27     13.05
    12/17 16:00     11.28     11.29  -1921.00     -0.23     -0.10     18379     48.27     12.97
    12/17 17:00     11.39     11.44   1414.00      0.16      0.08     18526     48.27     12.81
    12/17 18:00     11.29     11.33   5126.00      0.56      0.28     18393     48.97     12.73
    12/17 19:00     11.78     11.84  19946.00      1.83      1.05     19044     48.02     12.73
    12/17 20:00     11.59     11.66  24661.00      2.26      1.31     18792     47.52     12.73
    12/17 21:00     11.80     11.85  15819.00      1.47      0.83     19071     47.39     12.73
    12/17 22:00     11.88     11.92  18345.00      1.68      0.96     19177     47.30     12.73
    12/17 23:00     11.54     11.55    362.00      0.04      0.02     18725     46.94     12.73
    12/18 00:00      ----      ----      ----      ----      ----      ----      ----      ----